Time;durP1;ratioP1;P1;durP2;ratioP2;P2;SDS_P1;SDS_P2;PMS_P1;PMS_P2;Temp;Humidity;BMP_temperature;BMP_pressure;BME280_temperature;BME280_humidity;BME280_pressure;Samples;Min_cycle;Max_cycle;Signal;HPM_P1;HPM_P2
2023/09/21 00:01:34;;;;;;;17.15;5.97;;;21.50;99.90;;;;;;5055000;28;20040;-72
2023/09/21 00:04:01;;;;;;;13.07;5.53;;;21.40;99.90;;;;;;5054692;28;20372;-72
2023/09/21 00:06:27;;;;;;;9.45;5.20;;;21.30;99.90;;;;;;5049881;28;20128;-72
2023/09/21 00:08:53;;;;;;;7.78;4.90;;;21.30;99.90;;;;;;5039275;28;20215;-73
2023/09/21 00:11:20;;;;;;;13.43;5.68;;;21.30;99.90;;;;;;5035091;28;20111;-72
2023/09/21 00:13:46;;;;;;;11.35;5.15;;;21.40;99.90;;;;;;5034000;28;20436;-72
2023/09/21 00:16:12;;;;;;;7.72;5.30;;;21.30;99.90;;;;;;5029467;28;20041;-72
2023/09/21 00:18:42;;;;;;;12.63;4.82;;;21.30;99.90;;;;;;5033099;28;20022;-73
2023/09/21 00:21:07;;;;;;;11.25;5.70;;;21.40;99.90;;;;;;5033724;28;20029;-72
2023/09/21 00:23:33;;;;;;;8.00;5.32;;;21.40;99.90;;;;;;5032889;28;20519;-72
2023/09/21 00:26:00;;;;;;;11.10;5.60;;;21.40;99.90;;;;;;5033615;28;20488;-73
2023/09/21 00:28:29;;;;;;;11.20;5.30;;;21.40;99.90;;;;;;5032747;28;20220;-71
2023/09/21 00:30:59;;;;;;;13.60;5.47;;;21.50;99.90;;;;;;5037065;28;20372;-72
2023/09/21 00:33:25;;;;;;;15.75;5.35;;;21.50;99.90;;;;;;5028763;28;20044;-73
2023/09/21 00:35:51;;;;;;;8.20;5.22;;;21.50;99.90;;;;;;5031609;28;20026;-72
2023/09/21 00:38:19;;;;;;;9.93;5.63;;;21.50;99.90;;;;;;5032462;28;20032;-72
2023/09/21 00:40:45;;;;;;;9.55;5.10;;;21.50;99.90;;;;;;5032623;28;20017;-72
2023/09/21 00:43:24;;;;;;;11.00;5.20;;;21.50;99.90;;;;;;5032420;28;20058;-73
2023/09/21 00:45:53;;;;;;;10.38;5.53;;;21.50;99.90;;;;;;5030883;28;20129;-72
2023/09/21 00:48:25;;;;;;;10.85;4.88;;;21.50;99.90;;;;;;5032801;28;20018;-72
2023/09/21 00:50:58;;;;;;;11.05;5.38;;;21.50;99.90;;;;;;5032352;28;20418;-73
2023/09/21 00:53:27;;;;;;;13.10;5.78;;;21.40;99.90;;;;;;5039549;28;20120;-73
2023/09/21 00:55:59;;;;;;;9.77;5.35;;;21.40;99.90;;;;;;5028700;28;20029;-72
2023/09/21 00:58:25;;;;;;;10.13;5.10;;;21.40;99.90;;;;;;5052624;28;20028;-72
2023/09/21 01:00:54;;;;;;;13.00;6.05;;;21.40;99.90;;;;;;5053361;28;20254;-72
2023/09/21 01:03:22;;;;;;;14.65;6.30;;;21.30;99.90;;;;;;5052154;28;20476;-72
2023/09/21 01:05:52;;;;;;;11.18;4.93;;;21.30;99.90;;;;;;5048011;28;20033;-72
2023/09/21 01:08:21;;;;;;;9.77;5.47;;;21.30;99.90;;;;;;5031777;28;20021;-72
2023/09/21 01:10:53;;;;;;;10.77;5.55;;;21.30;99.90;;;;;;5053095;28;20063;-72
2023/09/21 01:13:20;;;;;;;8.98;5.25;;;21.30;99.90;;;;;;5052732;28;20503;-72
2023/09/21 01:15:58;;;;;;;10.98;5.68;;;21.40;99.90;;;;;;5040741;28;20065;-72
2023/09/21 01:18:24;;;;;;;13.10;5.55;;;21.40;99.90;;;;;;5059971;28;20033;-73
2023/09/21 01:20:55;;;;;;;12.30;5.28;;;21.40;99.90;;;;;;5048296;28;20463;-72
2023/09/21 01:23:35;;;;;;;10.52;5.93;;;21.50;99.90;;;;;;5047254;28;20044;-72
2023/09/21 01:26:01;;;;;;;16.27;6.20;;;21.60;99.90;;;;;;5042626;28;20503;-72
2023/09/21 01:28:29;;;;;;;15.10;5.75;;;21.60;99.90;;;;;;5042176;28;20024;-72
2023/09/21 01:30:58;;;;;;;10.90;5.47;;;21.60;99.90;;;;;;5052068;28;20503;-72
2023/09/21 01:33:24;;;;;;;13.88;6.00;;;21.60;99.90;;;;;;5046078;28;20147;-72
2023/09/21 01:35:50;;;;;;;12.18;6.47;;;21.60;99.90;;;;;;5052558;28;20021;-72
2023/09/21 01:38:17;;;;;;;12.43;6.40;;;21.60;99.90;;;;;;5053228;28;20458;-72
2023/09/21 01:40:43;;;;;;;14.25;6.45;;;21.60;99.90;;;;;;5051385;28;20036;-72
2023/09/21 01:43:15;;;;;;;15.90;6.50;;;21.70;99.90;;;;;;5052851;28;20053;-73
2023/09/21 01:45:42;;;;;;;12.43;6.53;;;21.70;99.90;;;;;;5052629;28;20049;-73
2023/09/21 01:48:09;;;;;;;12.48;6.45;;;21.70;99.90;;;;;;5052761;28;20025;-72
2023/09/21 01:50:40;;;;;;;14.38;6.28;;;21.70;99.90;;;;;;5051453;28;20480;-72
2023/09/21 01:53:10;;;;;;;14.17;5.73;;;21.70;99.90;;;;;;5052705;28;20040;-72
2023/09/21 01:55:38;;;;;;;10.48;5.95;;;21.70;99.90;;;;;;5051656;28;20756;-72
2023/09/21 01:58:04;;;;;;;15.38;6.13;;;21.60;99.90;;;;;;5050723;28;20119;-73
2023/09/21 02:00:36;;;;;;;11.13;5.72;;;21.60;99.90;;;;;;5039756;28;20021;-72
2023/09/21 02:03:04;;;;;;;15.27;6.57;;;21.60;99.90;;;;;;5024667;28;20038;-72
2023/09/21 02:05:30;;;;;;;14.50;5.72;;;21.60;99.90;;;;;;5025784;28;20100;-71
2023/09/21 02:07:56;;;;;;;12.18;5.28;;;21.50;99.90;;;;;;5064656;28;20499;-72
2023/09/21 02:10:22;;;;;;;12.65;6.15;;;21.50;99.90;;;;;;5056634;28;20144;-72
2023/09/21 02:13:00;;;;;;;15.93;6.85;;;21.60;99.90;;;;;;5040375;28;20381;-73
2023/09/21 02:15:27;;;;;;;12.57;5.93;;;21.60;99.90;;;;;;5060886;28;20045;-72
2023/09/21 02:17:56;;;;;;;10.60;6.10;;;21.60;99.90;;;;;;5041870;28;20013;-72
2023/09/21 02:20:23;;;;;;;11.63;6.00;;;21.70;99.90;;;;;;5036543;28;20466;-72
2023/09/21 02:22:57;;;;;;;10.27;5.72;;;21.70;99.90;;;;;;5024843;28;20032;-72
2023/09/21 02:25:24;;;;;;;18.98;5.60;;;21.70;99.90;;;;;;5037427;28;20392;-72
2023/09/21 02:27:50;;;;;;;9.70;5.55;;;21.70;99.90;;;;;;5051977;28;20017;-72
2023/09/21 02:30:21;;;;;;;10.80;6.03;;;21.80;99.90;;;;;;5036057;28;20568;-72
2023/09/21 02:32:52;;;;;;;11.65;5.43;;;21.70;99.90;;;;;;5040363;28;20048;-73
2023/09/21 02:35:25;;;;;;;14.00;5.77;;;21.70;99.90;;;;;;5045711;28;20041;-72
2023/09/21 02:37:52;;;;;;;13.88;5.82;;;21.70;99.90;;;;;;5051055;28;20270;-72
2023/09/21 02:40:19;;;;;;;12.43;5.78;;;21.60;99.90;;;;;;5050447;28;20052;-73
2023/09/21 02:42:48;;;;;;;11.43;5.95;;;21.60;99.90;;;;;;5030328;28;20543;-72
2023/09/21 02:45:16;;;;;;;9.98;5.97;;;21.60;99.90;;;;;;5035841;28;20132;-72
2023/09/21 02:47:42;;;;;;;9.73;5.72;;;21.60;99.90;;;;;;5022721;28;20033;-72
2023/09/21 02:50:14;;;;;;;10.25;6.05;;;21.60;99.90;;;;;;5027047;28;20538;-72
2023/09/21 02:52:45;;;;;;;;;;;21.60;99.90;;;;;;5037309;28;20112;-73
2023/09/21 02:55:12;;;;;;;11.75;4.82;;;21.60;99.90;;;;;;5032996;28;19977;-72
2023/09/21 02:57:39;;;;;;;11.60;6.20;;;21.60;99.90;;;;;;5030942;28;20508;-72
2023/09/21 03:00:13;;;;;;;12.38;6.13;;;21.60;99.90;;;;;;5028098;28;20025;-73
2023/09/21 03:02:39;;;;;;;9.02;5.43;;;21.50;99.90;;;;;;5037091;28;20026;-73
2023/09/21 03:05:10;;;;;;;12.32;6.22;;;21.50;99.90;;;;;;5048404;28;20134;-73
2023/09/21 03:07:39;;;;;;;14.13;7.50;;;21.60;99.90;;;;;;5051230;28;20392;-72
2023/09/21 03:10:09;;;;;;;17.75;7.78;;;21.60;99.90;;;;;;5039172;28;20017;-73
2023/09/21 03:12:38;;;;;;;11.90;6.68;;;21.60;99.90;;;;;;5051881;28;20025;-72
2023/09/21 03:15:15;;;;;;;13.98;7.18;;;21.70;99.90;;;;;;5017313;28;20053;-72
2023/09/21 03:17:42;;;;;;;13.40;7.95;;;21.70;99.90;;;;;;5032851;28;20403;-72
2023/09/21 03:20:11;;;;;;;16.02;7.88;;;21.60;99.90;;;;;;5048719;28;20396;-73
2023/09/21 03:22:38;;;;;;;16.23;7.95;;;21.60;99.90;;;;;;5039793;28;20036;-73
2023/09/21 03:25:11;;;;;;;18.15;8.65;;;21.60;99.90;;;;;;5051349;28;20043;-73
2023/09/21 03:27:40;;;;;;;13.40;7.90;;;21.60;99.90;;;;;;5051270;28;20476;-72
2023/09/21 03:30:10;;;;;;;15.45;8.48;;;21.50;99.90;;;;;;5049634;28;20038;-72
2023/09/21 03:32:40;;;;;;;15.77;8.18;;;21.40;99.90;;;;;;5049623;28;20029;-72
2023/09/21 03:35:06;;;;;;;15.23;7.85;;;21.40;99.90;;;;;;5053258;28;20029;-72
2023/09/21 03:37:34;;;;;;;13.90;7.90;;;21.40;99.90;;;;;;5043433;28;20060;-72
2023/09/21 03:39:59;;;;;;;17.30;8.05;;;21.40;99.90;;;;;;5036227;28;20025;-71
2023/09/21 03:42:27;;;;;;;14.43;9.15;;;21.40;99.90;;;;;;5046356;28;20029;-72
2023/09/21 03:44:53;;;;;;;17.38;9.43;;;21.20;99.90;;;;;;5054917;28;20045;-72
2023/09/21 03:47:19;;;;;;;16.13;8.73;;;21.20;99.90;;;;;;5054359;28;20484;-73
2023/09/21 03:49:44;;;;;;;17.38;9.07;;;21.20;99.90;;;;;;5053427;28;20120;-74
2023/09/21 03:52:15;;;;;;;13.23;7.95;;;21.10;99.90;;;;;;5044327;28;20041;-72
2023/09/21 03:54:42;;;;;;;;;;;21.10;99.90;;;;;;5041391;28;20047;-72
2023/09/21 03:57:14;;;;;;;16.90;8.93;;;21.10;99.90;;;;;;5039058;28;19993;-72
2023/09/21 03:59:41;;;;;;;;;;;21.10;99.90;;;;;;5040490;28;20029;-72
2023/09/21 04:02:07;;;;;;;17.02;9.00;;;21.10;99.90;;;;;;5033437;28;19905;-71
2023/09/21 04:04:34;;;;;;;14.05;9.02;;;21.10;99.90;;;;;;5035031;28;20025;-71
2023/09/21 04:07:00;;;;;;;18.15;8.85;;;21.10;99.90;;;;;;5035175;28;20081;-71
2023/09/21 04:09:26;;;;;;;14.98;9.27;;;21.10;99.90;;;;;;5047014;28;20392;-71
2023/09/21 04:11:52;;;;;;;17.00;10.38;;;21.10;99.90;;;;;;5047913;28;20034;-72
2023/09/21 04:14:18;;;;;;;14.30;9.43;;;21.10;99.90;;;;;;5036027;28;20124;-73
2023/09/21 04:16:44;;;;;;;17.10;8.98;;;21.20;99.90;;;;;;5046920;28;20436;-74
2023/09/21 04:19:10;;;;;;;15.82;9.07;;;21.20;99.90;;;;;;5038638;28;20151;-72
2023/09/21 04:21:36;;;;;;;16.42;9.57;;;21.20;99.90;;;;;;5039035;28;20025;-72
2023/09/21 04:24:03;;;;;;;16.02;9.30;;;21.30;99.90;;;;;;5036270;28;20370;-73
2023/09/21 04:26:29;;;;;;;16.52;9.45;;;21.30;99.90;;;;;;5049899;28;20380;-72
2023/09/21 04:28:55;;;;;;;15.35;8.68;;;21.40;99.90;;;;;;5038315;28;20068;-72
2023/09/21 04:31:21;;;;;;;15.18;10.10;;;21.30;99.90;;;;;;5033650;28;20053;-72
2023/09/21 04:33:48;;;;;;;16.23;9.75;;;21.20;99.90;;;;;;5040289;28;20110;-72
2023/09/21 04:36:13;;;;;;;17.23;10.02;;;21.20;99.90;;;;;;5039447;28;20029;-72
2023/09/21 04:38:39;;;;;;;17.30;9.85;;;21.20;99.90;;;;;;5043997;28;20032;-72
2023/09/21 04:41:10;;;;;;;22.23;10.70;;;21.20;99.90;;;;;;5053257;28;20062;-72
2023/09/21 04:43:39;;;;;;;18.10;10.15;;;21.20;99.90;;;;;;5034888;28;20053;-72
2023/09/21 04:46:06;;;;;;;18.10;10.40;;;21.20;99.90;;;;;;5053119;28;20049;-72
2023/09/21 04:48:33;;;;;;;18.40;9.52;;;21.10;99.90;;;;;;5044080;28;20507;-73
2023/09/21 04:51:00;;;;;;;15.65;9.35;;;21.10;99.90;;;;;;5052375;28;20029;-73
2023/09/21 04:53:27;;;;;;;26.80;11.43;;;21.00;99.90;;;;;;5048334;28;20026;-72
2023/09/21 04:55:53;;;;;;;23.70;10.85;;;21.00;99.90;;;;;;5043509;28;20025;-72
2023/09/21 04:58:20;;;;;;;27.17;10.88;;;21.00;99.90;;;;;;5047705;28;20132;-71
2023/09/21 05:00:45;;;;;;;22.75;10.55;;;20.90;99.90;;;;;;5048792;28;20018;-72
2023/09/21 05:03:11;;;;;;;31.83;9.32;;;21.00;99.90;;;;;;5050444;28;20120;-72
2023/09/21 05:05:37;;;;;;;29.98;11.23;;;21.00;99.90;;;;;;5052476;28;20033;-72
2023/09/21 05:08:03;;;;;;;20.67;9.75;;;20.90;99.90;;;;;;5051474;28;20017;-71
2023/09/21 05:10:30;;;;;;;27.90;10.27;;;20.90;99.90;;;;;;5052597;28;20083;-73
2023/09/21 05:12:57;;;;;;;19.25;9.55;;;20.80;99.90;;;;;;5049220;28;20022;-72
2023/09/21 05:15:24;;;;;;;18.42;10.25;;;20.90;99.90;;;;;;5053961;28;20057;-72
2023/09/21 05:17:49;;;;;;;23.65;11.63;;;20.80;99.90;;;;;;5053071;28;20021;-72
2023/09/21 05:20:16;;;;;;;22.75;11.23;;;20.80;99.90;;;;;;5052844;28;20486;-73
2023/09/21 05:22:42;;;;;;;18.23;10.25;;;20.90;99.90;;;;;;5052177;28;20032;-72
2023/09/21 05:25:09;;;;;;;33.67;9.57;;;20.90;99.90;;;;;;5050476;28;20029;-72
2023/09/21 05:27:36;;;;;;;18.63;9.95;;;20.80;99.90;;;;;;5033207;28;20045;-72
2023/09/21 05:30:04;;;;;;;21.25;8.77;;;21.00;99.90;;;;;;5036318;28;20048;-72
2023/09/21 05:32:32;;;;;;;39.35;13.13;;;21.00;99.90;;;;;;5032053;28;20104;-72
2023/09/21 05:34:58;;;;;;;35.78;12.32;;;21.20;99.90;;;;;;5031914;28;20026;-71
2023/09/21 05:37:24;;;;;;;38.38;10.52;;;21.40;99.90;;;;;;5032717;28;20078;-71
2023/09/21 05:39:51;;;;;;;18.17;10.15;;;21.50;99.90;;;;;;5036520;28;20104;-71
2023/09/21 05:42:17;;;;;;;16.67;9.85;;;21.70;99.90;;;;;;5036362;28;20515;-71
2023/09/21 05:44:43;;;;;;;17.40;9.00;;;21.90;99.90;;;;;;5053093;28;20155;-71
2023/09/21 05:47:10;;;;;;;21.60;9.75;;;22.00;99.90;;;;;;5053300;28;20068;-71
2023/09/21 05:49:37;;;;;;;25.58;9.45;;;21.90;99.90;;;;;;5052606;28;20032;-71
2023/09/21 05:52:11;;;;;;;17.73;10.45;;;21.80;99.90;;;;;;5052999;28;20079;-72
2023/09/21 05:54:37;;;;;;;16.48;9.50;;;21.90;99.90;;;;;;5052697;28;20029;-72
2023/09/21 05:57:03;;;;;;;16.48;8.80;;;21.90;99.90;;;;;;5052329;28;20013;-71
2023/09/21 05:59:31;;;;;;;23.45;10.20;;;21.60;99.90;;;;;;5048951;28;20053;-73
2023/09/21 06:01:59;;;;;;;17.27;9.88;;;21.40;99.90;;;;;;5032935;28;20452;-71
2023/09/21 06:04:26;;;;;;;16.95;9.55;;;21.40;99.90;;;;;;5032941;28;20026;-72
2023/09/21 06:06:58;;;;;;;19.73;9.77;;;21.20;99.90;;;;;;5032695;28;20079;-72
2023/09/21 06:09:24;;;;;;;18.92;9.52;;;21.30;99.90;;;;;;5032723;28;20034;-72
2023/09/21 06:11:51;;;;;;;20.05;10.05;;;21.10;99.90;;;;;;5042102;28;20021;-71
2023/09/21 06:14:18;;;;;;;20.35;10.60;;;21.20;99.90;;;;;;5052142;28;20021;-72
2023/09/21 06:16:45;;;;;;;25.90;11.40;;;21.30;99.90;;;;;;5052539;28;20509;-71
2023/09/21 06:19:12;;;;;;;18.17;10.27;;;21.40;99.90;;;;;;5052203;28;20017;-72
2023/09/21 06:21:39;;;;;;;17.77;10.00;;;22.00;99.90;;;;;;5052134;28;20051;-71
2023/09/21 06:24:06;;;;;;;20.40;10.88;;;22.30;99.90;;;;;;5052005;28;20028;-72
2023/09/21 06:26:32;;;;;;;22.35;11.68;;;22.70;99.90;;;;;;5052307;28;20094;-71
2023/09/21 06:28:59;;;;;;;19.92;10.35;;;22.60;99.90;;;;;;5052072;28;20029;-72
2023/09/21 06:31:25;;;;;;;16.10;10.45;;;22.50;99.90;;;;;;5052149;28;20029;-71
2023/09/21 06:33:57;;;;;;;17.23;11.15;;;22.60;99.90;;;;;;5051654;28;20052;-72
2023/09/21 06:36:30;;;;;;;17.05;10.82;;;22.60;99.90;;;;;;5052225;28;20059;-72
2023/09/21 06:38:59;;;;;;;22.13;10.18;;;22.50;99.90;;;;;;5051887;28;20071;-71
2023/09/21 06:41:25;;;;;;;19.50;9.88;;;22.60;99.90;;;;;;5051886;28;20029;-72
2023/09/21 06:43:51;;;;;;;19.58;9.32;;;22.70;99.90;;;;;;5052170;28;20036;-72
2023/09/21 06:46:18;;;;;;;15.40;9.32;;;22.80;99.90;;;;;;5050620;28;20382;-72
2023/09/21 06:48:45;;;;;;;15.02;9.23;;;23.00;99.90;;;;;;5052019;28;20443;-72
2023/09/21 06:51:11;;;;;;;16.05;9.25;;;23.10;99.90;;;;;;5051623;28;20017;-71
2023/09/21 06:53:37;;;;;;;16.40;9.13;;;23.10;99.90;;;;;;5051648;28;20460;-71
2023/09/21 06:56:04;;;;;;;18.83;8.98;;;23.20;99.90;;;;;;5051751;28;20021;-72
2023/09/21 06:58:30;;;;;;;17.33;9.50;;;23.10;99.90;;;;;;5051605;28;20025;-72
2023/09/21 07:01:00;;;;;;;17.70;8.73;;;23.20;99.90;;;;;;5051718;28;20036;-72
2023/09/21 07:03:26;;;;;;;15.85;8.98;;;23.00;99.90;;;;;;5051898;28;20029;-73
2023/09/21 07:05:52;;;;;;;16.65;9.45;;;23.10;99.90;;;;;;5051607;28;20048;-72
2023/09/21 07:08:19;;;;;;;18.45;9.07;;;23.20;99.90;;;;;;5050683;28;20013;-72
2023/09/21 07:10:46;;;;;;;22.45;10.18;;;23.30;99.90;;;;;;5052220;28;20029;-72
2023/09/21 07:13:13;;;;;;;17.58;9.02;;;23.50;99.90;;;;;;5051329;28;20029;-73
2023/09/21 07:15:39;;;;;;;24.42;11.63;;;23.70;99.90;;;;;;5051532;28;20047;-72
2023/09/21 07:18:09;;;;;;;28.02;12.40;;;23.90;99.90;;;;;;5051753;28;20112;-72
2023/09/21 07:20:35;;;;;;;20.98;12.15;;;23.90;99.90;;;;;;5051614;28;20033;-72
2023/09/21 07:23:01;;;;;;;19.42;12.32;;;24.10;99.90;;;;;;5051742;28;20056;-72
2023/09/21 07:25:28;;;;;;;27.10;13.23;;;24.30;99.90;;;;;;5051403;28;20051;-72
2023/09/21 07:27:54;;;;;;;20.88;11.65;;;24.40;99.90;;;;;;5050185;28;20423;-72
2023/09/21 07:30:22;;;;;;;23.77;11.63;;;24.50;99.90;;;;;;5051222;28;20033;-72
2023/09/21 07:32:47;;;;;;;21.50;12.52;;;24.60;99.90;;;;;;5051681;28;20377;-72
2023/09/21 07:35:14;;;;;;;26.35;13.50;;;24.80;99.90;;;;;;5051508;28;20033;-72
2023/09/21 07:37:46;;;;;;;25.35;15.75;;;24.90;99.90;;;;;;5051100;28;20046;-72
2023/09/21 07:40:16;;;;;;;25.08;11.27;;;24.90;99.90;;;;;;5051677;28;20473;-72
2023/09/21 07:42:48;;;;;;;22.23;10.45;;;25.00;99.90;;;;;;5050097;28;20436;-72
2023/09/21 07:45:15;;;;;;;19.85;9.30;;;25.20;99.90;;;;;;5051303;28;20094;-72
2023/09/21 07:47:41;;;;;;;21.58;11.52;;;25.20;99.90;;;;;;5051210;28;20079;-72
2023/09/21 07:50:08;;;;;;;19.35;10.25;;;25.00;99.90;;;;;;5051181;28;20041;-72
2023/09/21 07:52:35;;;;;;;20.30;9.90;;;24.80;99.90;;;;;;5050807;28;20060;-72
2023/09/21 07:55:04;;;;;;;21.05;8.85;;;24.70;99.90;;;;;;5050243;28;20030;-72
2023/09/21 07:57:39;;;;;;;18.02;10.00;;;24.60;99.90;;;;;;5051333;28;20488;-72
2023/09/21 08:00:09;;;;;;;21.80;10.32;;;24.60;99.90;;;;;;5051158;28;20033;-72
2023/09/21 08:02:35;;;;;;;23.52;10.45;;;24.50;99.90;;;;;;5051423;28;20074;-72
2023/09/21 08:05:09;;;;;;;16.73;8.65;;;24.70;99.90;;;;;;5045476;28;20120;-72
2023/09/21 08:07:36;;;;;;;16.17;8.25;;;24.70;99.90;;;;;;5044353;28;20107;-73
2023/09/21 08:10:05;;;;;;;18.05;8.05;;;24.80;99.90;;;;;;5051484;28;20535;-71
2023/09/21 08:12:31;;;;;;;18.00;9.43;;;24.90;99.90;;;;;;5051204;28;20048;-73
2023/09/21 08:14:57;;;;;;;16.77;8.40;;;25.00;99.90;;;;;;5051151;28;20017;-72
2023/09/21 08:17:24;;;;;;;18.05;8.05;;;25.20;99.90;;;;;;5050788;28;20043;-72
2023/09/21 08:19:50;;;;;;;25.45;9.02;;;25.30;99.90;;;;;;5050796;28;20021;-72
2023/09/21 08:22:17;;;;;;;17.17;7.20;;;25.30;99.90;;;;;;5054362;28;20381;-72
2023/09/21 08:24:43;;;;;;;12.75;7.75;;;25.50;99.90;;;;;;5054397;28;20108;-72
2023/09/21 08:27:09;;;;;;;15.50;7.70;;;25.70;99.90;;;;;;5054984;28;20467;-72
2023/09/21 08:29:34;;;;;;;18.23;7.78;;;25.80;99.90;;;;;;5053928;28;20052;-72
2023/09/21 08:32:01;;;;;;;24.88;8.38;;;25.80;99.90;;;;;;5054734;28;20036;-72
2023/09/21 08:34:27;;;;;;;17.75;7.60;;;26.00;99.90;;;;;;5041040;28;20078;-73
2023/09/21 08:36:53;;;;;;;14.10;7.18;;;26.00;99.90;;;;;;5054617;28;20029;-72
2023/09/21 08:39:19;;;;;;;19.58;8.07;;;26.00;99.90;;;;;;5053209;28;20089;-72
2023/09/21 08:41:49;;;;;;;19.33;7.25;;;26.10;99.90;;;;;;5054274;28;20400;-73
2023/09/21 08:44:19;;;;;;;23.38;8.23;;;26.20;99.90;;;;;;5053043;28;20057;-72
2023/09/21 08:46:45;;;;;;;16.83;7.45;;;26.30;99.90;;;;;;5054458;28;20029;-72
2023/09/21 08:49:14;;;;;;;17.52;7.45;;;26.50;99.90;;;;;;5027820;28;20029;-73
2023/09/21 08:51:41;;;;;;;14.50;7.00;;;26.60;99.90;;;;;;5053836;28;20171;-72
2023/09/21 08:54:07;;;;;;;17.77;6.35;;;26.80;99.90;;;;;;5053648;28;20025;-72
2023/09/21 08:56:33;;;;;;;18.33;7.03;;;27.30;97.80;;;;;;5053553;28;20033;-73
2023/09/21 08:59:06;;;;;;;12.38;6.28;;;27.20;97.50;;;;;;5054115;28;20098;-73
2023/09/21 09:01:32;;;;;;;15.93;5.65;;;27.70;99.10;;;;;;5053535;28;20039;-72
2023/09/21 09:03:58;;;;;;;10.27;5.18;;;28.10;94.60;;;;;;5054223;28;20021;-72
2023/09/21 09:06:28;;;;;;;10.80;5.90;;;28.10;94.30;;;;;;5051910;28;20468;-73
2023/09/21 09:08:55;;;;;;;10.77;5.43;;;;;;;;;;5054346;28;20029;-72
2023/09/21 09:11:39;;;;;;;14.65;5.95;;;28.80;94.30;;;;;;5053782;28;20115;-72
2023/09/21 09:14:11;;;;;;;18.15;6.35;;;;;;;;;;5053132;28;20115;-73
2023/09/21 09:16:37;;;;;;;13.40;5.10;;;28.90;90.60;;;;;;5040395;28;20029;-73
2023/09/21 09:19:06;;;;;;;12.48;5.82;;;29.30;93.80;;;;;;5053745;28;20079;-72
2023/09/21 09:21:33;;;;;;;13.18;5.97;;;;;;;;;;5026450;28;20436;-72
2023/09/21 09:24:00;;;;;;;13.75;6.28;;;29.70;97.90;;;;;;5053674;28;20021;-73
2023/09/21 09:26:26;;;;;;;12.80;6.30;;;;;;;;;;5053478;28;20033;-72
2023/09/21 09:29:19;;;;;;;12.55;5.35;;;;;;;;;;5053387;28;20381;-72
2023/09/21 09:31:48;;;;;;;12.98;6.15;;;;;;;;;;5051811;28;20048;-72
2023/09/21 09:34:17;;;;;;;12.95;5.50;;;;;;;;;;5053036;28;20041;-72
2023/09/21 09:36:49;;;;;;;14.10;5.15;;;;;;;;;;5053260;28;20384;-73
2023/09/21 09:39:18;;;;;;;15.70;5.68;;;;;;;;;;5052579;28;20119;-73
2023/09/21 09:41:49;;;;;;;11.75;5.22;;;29.70;99.90;;;;;;5052989;28;20376;-72
2023/09/21 09:44:19;;;;;;;14.48;5.10;;;29.60;99.80;;;;;;5028023;28;20139;-73
2023/09/21 09:46:49;;;;;;;11.50;4.75;;;;;;;;;;5052833;28;20083;-72
2023/09/21 09:49:20;;;;;;;18.00;5.47;;;29.70;99.90;;;;;;5053365;28;20025;-73
2023/09/21 09:51:50;;;;;;;11.45;4.50;;;;;;;;;;5052688;28;20056;-72
2023/09/21 09:54:18;;;;;;;14.17;5.60;;;29.70;99.90;;;;;;5053142;28;20024;-72
2023/09/21 09:56:45;;;;;;;66.03;8.88;;;29.50;95.40;;;;;;5052374;28;20033;-73
2023/09/21 09:59:11;;;;;;;14.68;5.22;;;29.40;95.90;;;;;;5053027;28;20017;-74
2023/09/21 10:01:39;;;;;;;18.55;5.80;;;29.60;96.50;;;;;;5032840;28;20061;-73
2023/09/21 10:04:08;;;;;;;14.68;4.28;;;29.70;95.30;;;;;;5033070;28;20034;-72
2023/09/21 10:06:36;;;;;;;9.27;3.50;;;29.60;94.50;;;;;;5032960;28;20457;-74
2023/09/21 10:09:10;;;;;;;18.65;5.57;;;;;;;;;;5032203;28;20381;-72
2023/09/21 10:11:45;;;;;;;16.33;5.80;;;;;;;;;;5040411;28;20032;-73
2023/09/21 10:14:13;;;;;;;13.05;4.03;;;;;;;;;;5051961;28;20033;-73
2023/09/21 10:16:49;;;;;;;13.75;4.07;;;30.10;77.90;;;;;;5052513;28;20029;-72
2023/09/21 10:19:23;;;;;;;7.32;3.97;;;30.10;79.00;;;;;;5039648;28;20036;-73
2023/09/21 10:21:54;;;;;;;10.43;4.13;;;30.00;78.60;;;;;;5041992;28;20029;-73
2023/09/21 10:24:21;;;;;;;9.65;4.22;;;30.00;80.60;;;;;;5035982;28;20048;-73
2023/09/21 10:26:58;;;;;;;14.38;4.28;;;29.80;79.20;;;;;;5015743;28;20463;-70
2023/09/21 10:29:40;;;;;;;13.40;4.40;;;29.80;78.50;;;;;;5038821;28;20104;-71
2023/09/21 10:32:06;;;;;;;13.65;4.85;;;29.70;79.80;;;;;;5032361;28;20037;-74
2023/09/21 10:34:32;;;;;;;11.05;4.13;;;29.80;79.50;;;;;;5035201;28;20136;-71
2023/09/21 10:37:05;;;;;;;9.32;3.90;;;30.00;78.20;;;;;;5042524;28;20495;-71
2023/09/21 10:39:32;;;;;;;11.50;4.30;;;30.20;78.00;;;;;;5038645;28;20022;-72
2023/09/21 10:42:04;;;;;;;10.20;4.25;;;30.10;76.00;;;;;;5051245;28;20103;-71
2023/09/21 10:45:04;;;;;;;17.63;4.18;;;30.10;79.90;;;;;;5042023;28;20054;-73
2023/09/21 10:47:36;;;;;;;7.60;3.58;;;29.80;78.90;;;;;;5029777;28;20033;-73
2023/09/21 10:50:04;;;;;;;9.93;3.65;;;29.90;79.50;;;;;;5033633;28;20037;-72
2023/09/21 10:52:31;;;;;;;12.63;3.92;;;29.60;93.30;;;;;;5027053;28;20575;-72
2023/09/21 10:54:59;;;;;;;15.88;4.75;;;29.70;94.20;;;;;;5037226;28;20078;-71
2023/09/21 10:57:29;;;;;;;14.63;4.55;;;30.10;94.30;;;;;;5045057;28;20029;-72
2023/09/21 10:59:58;;;;;;;11.02;4.85;;;30.20;94.90;;;;;;5036007;28;20108;-72
2023/09/21 11:02:24;;;;;;;18.13;6.15;;;30.00;94.30;;;;;;5038382;28;20033;-71
2023/09/21 11:04:52;;;;;;;9.10;4.38;;;;;;;;;;5044790;28;20025;-72
2023/09/21 11:07:21;;;;;;;10.98;4.05;;;30.20;75.50;;;;;;5052121;28;20107;-71
2023/09/21 11:09:48;;;;;;;17.10;5.07;;;;;;;;;;5035018;28;20526;-72
2023/09/21 11:12:14;;;;;;;11.57;5.03;;;30.30;93.40;;;;;;5033045;28;20029;-71
2023/09/21 11:14:48;;;;;;;12.52;5.10;;;30.20;94.60;;;;;;5041452;28;20066;-72
2023/09/21 11:17:18;;;;;;;13.07;4.72;;;30.20;94.10;;;;;;5033297;28;20033;-71
2023/09/21 11:19:46;;;;;;;11.88;3.80;;;30.40;92.90;;;;;;5037940;28;20113;-71
2023/09/21 11:22:15;;;;;;;12.48;4.68;;;30.30;92.60;;;;;;5037815;28;20053;-71
2023/09/21 11:24:42;;;;;;;11.70;4.25;;;;;;;;;;5033840;28;20021;-71
2023/09/21 11:27:10;;;;;;;12.30;4.90;;;32.30;77.30;;;;;;5031421;28;20065;-72
2023/09/21 11:29:40;;;;;;;11.82;3.92;;;30.20;76.50;;;;;;5035766;28;20017;-71
2023/09/21 11:32:22;;;;;;;13.20;5.13;;;30.30;76.30;;;;;;5036179;28;20030;-72
2023/09/21 11:34:56;;;;;;;9.80;3.90;;;30.30;75.80;;;;;;5047777;28;20021;-72
2023/09/21 11:37:22;;;;;;;11.23;4.32;;;30.00;75.50;;;;;;5033869;28;20041;-71
2023/09/21 11:39:49;;;;;;;12.63;4.72;;;30.20;78.30;;;;;;5039174;28;20024;-72
2023/09/21 11:42:18;;;;;;;15.23;4.57;;;30.10;76.60;;;;;;5039861;28;20030;-71
2023/09/21 11:44:52;;;;;;;10.93;3.97;;;30.20;76.60;;;;;;5035126;28;20037;-72
2023/09/21 11:47:20;;;;;;;14.27;4.10;;;30.10;76.20;;;;;;5035957;28;20034;-73
2023/09/21 11:49:45;;;;;;;9.93;4.20;;;30.10;76.80;;;;;;5036660;28;20021;-72
2023/09/21 11:52:15;;;;;;;24.13;4.95;;;30.20;74.70;;;;;;5040051;28;20144;-73
2023/09/21 11:54:41;;;;;;;16.33;4.40;;;30.30;75.80;;;;;;5036723;28;20052;-73
2023/09/21 11:57:09;;;;;;;29.23;6.00;;;30.30;74.70;;;;;;5054496;28;20033;-73
2023/09/21 11:59:39;;;;;;;10.18;4.20;;;30.30;75.30;;;;;;5051981;28;20112;-73
2023/09/21 12:02:09;;;;;;;16.83;4.82;;;30.30;74.90;;;;;;5055299;28;20036;-73
2023/09/21 12:04:39;;;;;;;11.88;4.65;;;30.40;76.00;;;;;;5054936;28;20033;-73
2023/09/21 12:07:06;;;;;;;14.20;4.82;;;30.40;74.60;;;;;;5054986;28;20116;-73
2023/09/21 12:09:36;;;;;;;14.88;4.78;;;30.30;76.20;;;;;;5054787;28;20021;-73
2023/09/21 12:12:05;;;;;;;12.70;4.80;;;30.40;75.90;;;;;;5054784;28;20032;-73
2023/09/21 12:14:32;;;;;;;11.98;4.43;;;30.50;75.30;;;;;;5054325;28;20029;-73
2023/09/21 12:17:02;;;;;;;19.50;5.72;;;30.60;80.40;;;;;;5054836;28;20028;-73
2023/09/21 12:19:31;;;;;;;15.13;5.03;;;30.60;73.80;;;;;;5054422;28;20057;-73
2023/09/21 12:21:57;;;;;;;15.68;5.88;;;30.50;74.10;;;;;;5054534;28;20021;-73
2023/09/21 12:24:23;;;;;;;10.63;5.05;;;30.60;74.50;;;;;;5054026;28;20017;-73
2023/09/21 12:26:48;;;;;;;17.42;5.85;;;30.60;73.40;;;;;;5054735;28;20393;-73
2023/09/21 12:29:17;;;;;;;12.52;4.95;;;30.70;74.70;;;;;;5053660;28;20029;-74
2023/09/21 12:31:45;;;;;;;10.73;4.68;;;30.50;72.40;;;;;;5054783;28;20488;-73
2023/09/21 12:34:14;;;;;;;23.75;5.90;;;30.30;72.80;;;;;;5044299;28;20025;-73
2023/09/21 12:36:42;;;;;;;16.52;5.88;;;30.10;72.90;;;;;;5054515;28;20074;-73
2023/09/21 12:39:09;;;;;;;13.88;4.78;;;30.00;73.40;;;;;;5054327;28;20029;-73
2023/09/21 12:41:38;;;;;;;19.98;5.38;;;29.90;73.30;;;;;;5053697;28;20025;-72
2023/09/21 12:44:06;;;;;;;20.80;4.90;;;29.90;73.10;;;;;;5054203;28;20130;-73
2023/09/21 12:46:32;;;;;;;17.67;5.03;;;29.90;72.10;;;;;;5053832;28;20052;-73
2023/09/21 12:48:58;;;;;;;19.42;5.03;;;29.90;74.10;;;;;;5054122;28;20404;-73